createdAt,value
2018-07-14T00:01:01.232Z,17.40
2018-07-14T00:03:31.639Z,17.40
2018-07-14T00:06:03.407Z,17.30
2018-07-14T00:08:34.423Z,17.30
2018-07-14T00:11:05.064Z,17.30
2018-07-14T00:13:36.762Z,17.20
2018-07-14T00:16:07.739Z,17.20
2018-07-14T00:18:38.384Z,17.20
2018-07-14T00:21:09.012Z,17.20
2018-07-14T00:23:39.054Z,17.20
2018-07-14T00:26:17.388Z,17.20
2018-07-14T00:28:47.643Z,17.20
2018-07-14T00:31:18.047Z,17.10
2018-07-14T00:33:48.158Z,17.10
2018-07-14T00:36:18.439Z,17.10
2018-07-14T00:38:53.212Z,17.10
2018-07-14T00:41:28.059Z,17.00
2018-07-14T00:43:59.199Z,17.00
2018-07-14T00:46:29.527Z,17.00
2018-07-14T00:49:03.708Z,17.00
2018-07-14T00:51:36.001Z,17.00
2018-07-14T00:54:08.583Z,17.00
2018-07-14T00:56:43.975Z,17.00
2018-07-14T00:59:14.773Z,17.00
2018-07-14T01:01:45.371Z,16.90
2018-07-14T01:04:14.622Z,16.90
2018-07-14T01:06:43.830Z,16.90
2018-07-14T01:09:13.063Z,17.00
2018-07-14T01:11:42.331Z,17.00
2018-07-14T01:14:11.656Z,17.10
2018-07-14T01:16:40.994Z,17.10
2018-07-14T01:19:10.216Z,17.20
2018-07-14T01:21:39.451Z,17.40
2018-07-14T01:24:08.743Z,17.40
2018-07-14T01:26:37.990Z,17.50
2018-07-14T01:29:07.303Z,17.50
2018-07-14T01:31:36.560Z,17.80
2018-07-14T01:34:05.784Z,17.60
2018-07-14T01:36:35.030Z,17.60
2018-07-14T01:39:05.056Z,17.60
2018-07-14T01:41:34.374Z,17.60
2018-07-14T01:44:03.610Z,17.60
2018-07-14T01:46:32.840Z,17.60
2018-07-14T01:49:02.080Z,17.60
2018-07-14T01:51:31.367Z,17.60
2018-07-14T01:54:00.603Z,17.60
2018-07-14T01:56:29.905Z,17.60
2018-07-14T01:58:59.128Z,17.60
2018-07-14T02:01:28.355Z,17.50
2018-07-14T02:03:57.583Z,17.50
2018-07-14T02:06:26.817Z,17.50
2018-07-14T02:08:56.102Z,17.50
2018-07-14T02:11:25.480Z,17.50
2018-07-14T02:16:23.785Z,17.50
2018-07-14T02:18:53.182Z,17.50
2018-07-14T02:21:22.407Z,17.40
2018-07-14T02:23:51.728Z,17.40
2018-07-14T02:26:22.014Z,17.30
2018-07-14T02:28:51.338Z,17.20
2018-07-14T02:31:20.614Z,17.10
2018-07-14T02:33:49.855Z,17.10
2018-07-14T02:36:19.159Z,17.00
2018-07-14T02:38:48.412Z,17.00
2018-07-14T02:41:17.778Z,17.00
2018-07-14T02:43:47.315Z,17.00
2018-07-14T02:46:16.667Z,17.00
2018-07-14T02:51:14.983Z,17.00
2018-07-14T02:56:13.335Z,16.90
2018-07-14T02:58:42.579Z,16.90
2018-07-14T03:01:11.891Z,16.90
2018-07-14T03:03:41.243Z,16.90
2018-07-14T03:06:10.546Z,16.90
2018-07-14T03:08:39.771Z,17.00
2018-07-14T03:11:08.982Z,17.00
2018-07-14T03:13:38.295Z,17.00
2018-07-14T03:16:07.603Z,16.90
2018-07-14T03:18:36.851Z,16.90
2018-07-14T03:23:35.328Z,16.90
2018-07-14T03:26:04.589Z,16.80
2018-07-14T03:28:33.827Z,16.80
2018-07-14T03:31:03.080Z,16.80
2018-07-14T03:33:32.399Z,16.80
2018-07-14T03:36:01.613Z,16.80
2018-07-14T03:38:30.865Z,16.80
2018-07-14T03:41:00.068Z,16.80
2018-07-14T03:43:29.282Z,16.80
2018-07-14T03:45:58.524Z,16.80
2018-07-14T03:48:27.876Z,16.80
2018-07-14T03:50:57.103Z,16.80
2018-07-14T03:53:26.328Z,16.70
2018-07-14T03:55:55.554Z,16.60
2018-07-14T03:58:24.787Z,16.60
2018-07-14T04:00:54.091Z,16.60
2018-07-14T04:03:23.277Z,16.50
2018-07-14T04:05:52.512Z,16.50
2018-07-14T04:08:21.763Z,16.50
2018-07-14T04:10:51.024Z,16.50
2018-07-14T04:13:20.283Z,16.40
2018-07-14T04:15:49.574Z,16.50
2018-07-14T04:18:18.847Z,16.50
2018-07-14T04:20:48.170Z,16.50
2018-07-14T04:23:17.669Z,16.60
2018-07-14T04:25:46.927Z,16.60
2018-07-14T04:28:16.454Z,16.70
2018-07-14T04:30:45.686Z,16.70
2018-07-14T04:33:14.951Z,16.80
2018-07-14T04:35:44.187Z,16.90
2018-07-14T04:38:13.492Z,17.00
2018-07-14T04:40:42.787Z,17.10
2018-07-14T04:43:12.030Z,17.30
2018-07-14T04:45:41.299Z,17.40
2018-07-14T04:48:10.514Z,17.50
2018-07-14T04:50:39.784Z,17.70
2018-07-14T04:53:09.027Z,17.80
2018-07-14T04:55:38.283Z,17.90
2018-07-14T04:58:08.885Z,18.10
2018-07-14T05:00:38.127Z,18.30
2018-07-14T05:03:07.363Z,18.70
2018-07-14T05:05:36.606Z,19.40
2018-07-14T05:08:05.841Z,20.10
2018-07-14T05:10:35.095Z,20.40
2018-07-14T05:13:04.360Z,20.40
2018-07-14T05:15:33.676Z,20.20
2018-07-14T05:18:02.951Z,20.20
2018-07-14T05:20:32.225Z,21.20
2018-07-14T05:23:01.451Z,22.60
2018-07-14T05:25:30.658Z,23.70
2018-07-14T05:27:59.863Z,24.70
2018-07-14T05:30:29.191Z,25.50
2018-07-14T05:32:58.410Z,25.80
2018-07-14T05:35:27.618Z,26.50
2018-07-14T05:37:56.814Z,27.10
2018-07-14T05:40:26.035Z,27.40
2018-07-14T05:42:55.230Z,27.30
2018-07-14T05:45:24.447Z,28.00
2018-07-14T05:47:53.645Z,28.50
2018-07-14T05:50:22.889Z,28.80
2018-07-14T05:52:52.122Z,28.90
2018-07-14T05:57:50.370Z,29.20
2018-07-14T06:00:19.650Z,29.40
2018-07-14T06:02:48.918Z,29.40
2018-07-14T06:05:18.187Z,29.30
2018-07-14T06:10:17.440Z,29.20
2018-07-14T06:12:46.664Z,29.50
2018-07-14T06:15:15.923Z,30.00
2018-07-14T06:17:45.180Z,30.40
2018-07-14T06:20:14.438Z,30.70
2018-07-14T06:22:43.640Z,30.80
2018-07-14T06:25:12.925Z,31.00
2018-07-14T06:27:42.206Z,31.20
2018-07-14T06:30:11.523Z,31.50
2018-07-14T06:32:40.769Z,31.50
2018-07-14T06:35:10.017Z,31.20
2018-07-14T06:37:39.210Z,31.00
2018-07-14T06:40:08.401Z,31.20
2018-07-14T06:42:37.671Z,31.30
2018-07-14T06:45:07.015Z,31.50
2018-07-14T06:47:36.564Z,31.50
2018-07-14T06:50:05.887Z,31.70
2018-07-14T06:52:35.255Z,31.70
2018-07-14T06:57:33.590Z,31.10
2018-07-14T07:00:02.829Z,30.00
2018-07-14T07:02:32.093Z,29.10
2018-07-14T07:05:02.014Z,28.30
2018-07-14T07:07:31.656Z,27.20
2018-07-14T07:10:01.700Z,26.50
2018-07-14T07:12:31.594Z,26.20
2018-07-14T07:15:01.957Z,26.00
2018-07-14T07:17:32.133Z,25.70
2018-07-14T07:20:02.371Z,25.40
2018-07-14T07:22:31.677Z,25.20
2018-07-14T07:25:01.266Z,25.40
2018-07-14T07:27:30.482Z,25.40
2018-07-14T07:29:59.819Z,25.40
2018-07-14T07:32:29.212Z,25.40
2018-07-14T07:34:58.485Z,25.30
2018-07-14T07:37:27.703Z,25.40
2018-07-14T07:39:56.990Z,25.50
2018-07-14T07:42:26.435Z,25.50
2018-07-14T07:44:55.728Z,25.50
2018-07-14T07:47:24.997Z,25.60
2018-07-14T07:49:54.335Z,25.70
2018-07-14T07:52:23.679Z,25.90
2018-07-14T07:54:52.934Z,26.10
2018-07-14T07:57:22.227Z,26.20
2018-07-14T07:59:51.589Z,26.10
2018-07-14T08:02:20.870Z,25.90
2018-07-14T08:04:50.131Z,25.80
2018-07-14T08:07:19.413Z,26.00
2018-07-14T08:09:48.713Z,26.10
2018-07-14T08:12:17.955Z,25.70
2018-07-14T08:14:47.230Z,25.70
2018-07-14T08:17:16.533Z,25.80
2018-07-14T08:19:52.319Z,25.90
2018-07-14T08:22:21.602Z,26.10
2018-07-14T08:24:50.863Z,26.30
2018-07-14T08:27:20.083Z,26.40
2018-07-14T08:29:49.265Z,26.40
2018-07-14T08:32:18.566Z,26.50
2018-07-14T08:34:47.791Z,26.60
2018-07-14T08:37:17.106Z,26.80
2018-07-14T08:39:46.361Z,26.80
2018-07-14T08:42:15.668Z,26.90
2018-07-14T08:44:44.961Z,26.80
2018-07-14T08:47:14.222Z,26.70
2018-07-14T08:49:43.687Z,26.70
2018-07-14T08:52:12.945Z,26.60
2018-07-14T08:54:42.182Z,26.60
2018-07-14T08:57:11.481Z,26.70
2018-07-14T08:59:40.720Z,26.50
2018-07-14T09:02:09.936Z,26.70
2018-07-14T09:04:39.195Z,26.60
2018-07-14T09:07:08.507Z,26.70
2018-07-14T09:09:37.819Z,26.70
2018-07-14T09:12:07.178Z,26.90
2018-07-14T09:14:36.499Z,27.00
2018-07-14T09:17:06.171Z,27.20
2018-07-14T09:19:35.416Z,27.30
2018-07-14T09:22:04.702Z,27.40
2018-07-14T09:24:33.946Z,27.40
2018-07-14T09:27:03.260Z,27.50
2018-07-14T09:29:32.581Z,27.50
2018-07-14T09:32:01.784Z,27.40
2018-07-14T09:34:31.019Z,27.50
2018-07-14T09:37:00.271Z,27.50
2018-07-14T09:39:29.531Z,27.70
2018-07-14T09:41:58.762Z,27.70
2018-07-14T09:44:28.243Z,27.50
2018-07-14T09:46:58.045Z,27.70
2018-07-14T09:49:27.833Z,27.80
2018-07-14T09:51:57.319Z,27.80
2018-07-14T09:56:55.523Z,27.60
2018-07-14T09:59:24.780Z,27.60
2018-07-14T10:01:54.111Z,27.60
2018-07-14T10:04:23.344Z,27.70
2018-07-14T10:06:52.649Z,27.30
2018-07-14T10:09:21.877Z,27.80
2018-07-14T10:11:51.174Z,27.90
2018-07-14T10:14:20.436Z,28.10
2018-07-14T10:16:49.819Z,28.10
2018-07-14T10:21:48.122Z,28.10
2018-07-14T10:24:17.393Z,27.90
2018-07-14T10:26:46.593Z,28.00
2018-07-14T10:29:15.871Z,28.10
2018-07-14T10:31:45.091Z,28.10
2018-07-14T10:36:43.316Z,28.30
2018-07-14T10:39:12.673Z,28.40
2018-07-14T10:41:41.885Z,28.50
2018-07-14T10:44:11.199Z,28.50
2018-07-14T10:46:40.549Z,28.70
2018-07-14T10:49:09.820Z,28.90
2018-07-14T10:51:39.958Z,29.00
2018-07-14T10:54:09.144Z,29.00
2018-07-14T10:56:38.467Z,29.00
2018-07-14T10:59:07.712Z,28.90
2018-07-14T11:01:36.991Z,29.00
2018-07-14T11:04:06.701Z,28.90
2018-07-14T11:09:05.667Z,29.10
2018-07-14T11:11:35.008Z,29.10
2018-07-14T11:14:04.240Z,29.20
2018-07-14T11:16:33.788Z,29.20
2018-07-14T11:19:02.999Z,29.20
2018-07-14T11:21:32.296Z,29.30
2018-07-14T11:24:01.565Z,29.30
2018-07-14T11:26:30.832Z,29.20
2018-07-14T11:29:00.081Z,29.20
2018-07-14T11:31:29.430Z,29.30
2018-07-14T11:33:58.658Z,29.50
2018-07-14T11:36:27.865Z,29.70
2018-07-14T11:38:57.086Z,29.50
2018-07-14T11:41:26.352Z,29.50
2018-07-14T11:43:55.561Z,29.80
2018-07-14T11:46:31.142Z,29.90
2018-07-14T11:49:00.327Z,30.00
2018-07-14T11:51:29.547Z,30.10
2018-07-14T11:53:58.755Z,30.20
2018-07-14T11:56:28.043Z,30.20
2018-07-14T11:58:57.340Z,29.90
2018-07-14T12:01:26.667Z,29.70
2018-07-14T12:03:55.930Z,29.40
2018-07-14T12:06:25.250Z,29.60
2018-07-14T12:08:54.696Z,29.80
2018-07-14T12:11:24.011Z,30.00
2018-07-14T12:13:53.280Z,30.20
2018-07-14T12:16:22.619Z,30.30
2018-07-14T12:18:51.974Z,30.20
2018-07-14T12:21:21.242Z,30.10
2018-07-14T12:23:51.587Z,29.70
2018-07-14T12:26:20.858Z,29.60
2018-07-14T12:28:50.116Z,29.50
2018-07-14T12:31:19.426Z,29.30
2018-07-14T12:33:49.558Z,29.30
2018-07-14T12:36:18.903Z,29.40
2018-07-14T12:38:48.173Z,29.40
2018-07-14T12:41:17.501Z,29.60
2018-07-14T12:43:46.770Z,29.80
2018-07-14T12:46:16.041Z,30.10
2018-07-14T12:48:45.356Z,30.20
2018-07-14T12:51:14.619Z,30.40
2018-07-14T12:53:43.908Z,30.30
2018-07-14T12:56:13.163Z,30.10
2018-07-14T12:58:42.674Z,29.70
2018-07-14T13:01:12.066Z,29.40
2018-07-14T13:03:41.331Z,29.20
2018-07-14T13:06:10.913Z,29.10
2018-07-14T13:08:40.183Z,28.90
2018-07-14T13:11:09.404Z,28.80
2018-07-14T13:13:38.662Z,28.80
2018-07-14T13:16:07.918Z,28.80
2018-07-14T13:21:06.279Z,29.60
2018-07-14T13:23:35.760Z,29.90
2018-07-14T13:26:05.090Z,29.90
2018-07-14T13:28:34.581Z,29.70
2018-07-14T13:31:03.965Z,29.40
2018-07-14T13:33:33.230Z,29.10
2018-07-14T13:36:02.480Z,29.10
2018-07-14T13:38:31.756Z,29.10
2018-07-14T13:41:01.015Z,29.20
2018-07-14T13:43:30.284Z,29.40
2018-07-14T13:45:59.538Z,29.60
2018-07-14T13:48:28.920Z,29.70
2018-07-14T13:50:58.414Z,29.80
2018-07-14T13:53:27.827Z,29.90
2018-07-14T13:55:57.123Z,29.90
2018-07-14T13:58:26.493Z,30.00
2018-07-14T14:00:55.746Z,29.90
2018-07-14T14:03:25.090Z,30.00
2018-07-14T14:05:54.379Z,30.10
2018-07-14T14:08:23.676Z,30.40
2018-07-14T14:10:52.972Z,30.80
2018-07-14T14:13:22.218Z,31.00
2018-07-14T14:15:51.521Z,31.40
2018-07-14T14:18:20.847Z,31.10
2018-07-14T14:20:50.222Z,30.70
2018-07-14T14:23:19.633Z,30.30
2018-07-14T14:25:48.966Z,30.00
2018-07-14T14:30:47.367Z,29.70
2018-07-14T14:33:16.606Z,29.60
2018-07-14T14:35:45.928Z,29.60
2018-07-14T14:40:44.267Z,29.80
2018-07-14T14:43:13.524Z,30.30
2018-07-14T14:45:42.786Z,30.70
2018-07-14T14:48:12.044Z,30.80
2018-07-14T14:50:41.306Z,30.60
2018-07-14T14:53:10.747Z,30.20
2018-07-14T14:58:09.635Z,29.90
2018-07-14T15:00:38.994Z,29.70
2018-07-14T15:03:08.340Z,29.70
2018-07-14T15:05:37.682Z,29.60
2018-07-14T15:08:07.007Z,29.60
2018-07-14T15:10:36.403Z,29.50
2018-07-14T15:13:05.763Z,29.40
2018-07-14T15:15:35.118Z,29.40
2018-07-14T15:18:04.383Z,29.50
2018-07-14T15:20:33.697Z,29.40
2018-07-14T15:23:02.987Z,29.50
2018-07-14T15:25:32.240Z,29.60
2018-07-14T15:28:01.489Z,29.80
2018-07-14T15:30:30.777Z,29.90
2018-07-14T15:33:00.302Z,29.90
2018-07-14T15:35:29.531Z,29.90
2018-07-14T15:37:58.851Z,29.80
2018-07-14T15:40:28.085Z,29.80
2018-07-14T15:42:57.329Z,29.70
2018-07-14T15:45:26.582Z,29.90
2018-07-14T15:50:24.912Z,29.70
2018-07-14T15:52:54.150Z,29.60
2018-07-14T15:55:23.447Z,29.40
2018-07-14T15:57:52.727Z,29.30
2018-07-14T16:00:22.135Z,29.30
2018-07-14T16:02:51.351Z,29.30
2018-07-14T16:05:20.618Z,29.20
2018-07-14T16:07:49.928Z,28.90
2018-07-14T16:10:19.163Z,28.70
2018-07-14T16:12:48.424Z,28.50
2018-07-14T16:15:17.647Z,28.60
2018-07-14T16:17:46.890Z,28.80
2018-07-14T16:20:16.105Z,28.90
2018-07-14T16:22:45.499Z,28.90
2018-07-14T16:25:14.706Z,28.80
2018-07-14T16:27:44.404Z,28.80
2018-07-14T16:30:13.592Z,28.80
2018-07-14T16:32:42.822Z,28.70
2018-07-14T16:35:12.153Z,28.60
2018-07-14T16:37:41.574Z,28.40
2018-07-14T16:40:10.811Z,28.30
2018-07-14T16:42:40.040Z,28.30
2018-07-14T16:45:09.235Z,28.40
2018-07-14T16:47:38.479Z,28.50
2018-07-14T16:50:07.722Z,28.50
2018-07-14T16:52:36.940Z,28.50
2018-07-14T16:55:06.624Z,28.60
2018-07-14T16:57:35.935Z,28.70
2018-07-14T17:00:05.336Z,29.00
2018-07-14T17:02:34.972Z,29.20
2018-07-14T17:05:04.267Z,29.20
2018-07-14T17:07:33.527Z,29.20
2018-07-14T17:10:02.815Z,29.10
2018-07-14T17:12:32.048Z,28.90
2018-07-14T17:15:01.239Z,28.60
2018-07-14T17:17:30.505Z,28.50
2018-07-14T17:19:59.734Z,28.30
2018-07-14T17:22:28.933Z,28.10
2018-07-14T17:24:58.146Z,28.00
2018-07-14T17:27:27.884Z,27.80
2018-07-14T17:29:57.138Z,27.80
2018-07-14T17:34:55.779Z,27.80
2018-07-14T17:37:25.096Z,27.80
2018-07-14T17:39:54.398Z,27.90
2018-07-14T17:42:23.776Z,27.80
2018-07-14T17:44:53.111Z,27.80
2018-07-14T17:47:22.422Z,27.80
2018-07-14T17:49:51.719Z,27.70
2018-07-14T17:52:21.350Z,27.70
2018-07-14T17:54:50.798Z,27.70
2018-07-14T17:57:20.192Z,27.60
2018-07-14T17:59:49.600Z,27.60
2018-07-14T18:02:18.992Z,27.50
2018-07-14T18:04:48.884Z,27.40
2018-07-14T18:07:18.233Z,27.30
2018-07-14T18:09:47.504Z,27.10
2018-07-14T18:12:16.965Z,27.00
2018-07-14T18:14:46.349Z,27.00
2018-07-14T18:17:15.611Z,26.90
2018-07-14T18:19:44.983Z,26.90
2018-07-14T18:22:14.278Z,26.80
2018-07-14T18:24:44.008Z,26.70
2018-07-14T18:27:13.286Z,26.60
2018-07-14T18:29:43.532Z,26.60
2018-07-14T18:32:12.873Z,26.50
2018-07-14T18:34:42.182Z,26.40
2018-07-14T18:37:11.568Z,26.30
2018-07-14T18:39:40.886Z,26.10
2018-07-14T18:42:10.209Z,26.00
2018-07-14T18:44:39.582Z,25.90
2018-07-14T18:47:08.845Z,25.70
2018-07-14T18:52:07.598Z,25.50
2018-07-14T18:54:36.828Z,25.40
2018-07-14T18:57:06.187Z,25.30
2018-07-14T18:59:35.730Z,25.20
2018-07-14T19:04:34.167Z,24.90
2018-07-14T19:07:03.442Z,24.70
2018-07-14T19:09:32.694Z,24.40
2018-07-14T19:12:02.174Z,24.30
2018-07-14T19:14:31.418Z,24.10
2018-07-14T19:17:00.803Z,24.00
2018-07-14T19:19:30.186Z,23.90
2018-07-14T19:21:59.524Z,23.70
2018-07-14T19:24:28.766Z,23.60
2018-07-14T19:26:58.073Z,23.40
2018-07-14T19:29:27.344Z,23.30
2018-07-14T19:31:56.611Z,23.30
2018-07-14T19:34:25.947Z,23.20
2018-07-14T19:36:55.272Z,23.10
2018-07-14T19:39:24.623Z,23.00
2018-07-14T19:41:53.910Z,22.90
2018-07-14T19:44:23.219Z,22.80
2018-07-14T19:46:52.506Z,22.90
2018-07-14T19:49:21.819Z,22.60
2018-07-14T19:51:51.184Z,22.50
2018-07-14T19:54:20.543Z,22.50
2018-07-14T19:56:49.900Z,22.40
2018-07-14T19:59:19.792Z,22.30
2018-07-14T20:01:49.338Z,22.30
2018-07-14T20:04:19.074Z,22.20
2018-07-14T20:06:48.425Z,22.20
2018-07-14T20:09:17.742Z,22.10
2018-07-14T20:11:46.950Z,22.00
2018-07-14T20:14:16.229Z,22.00
2018-07-14T20:16:45.447Z,21.90
2018-07-14T20:19:14.688Z,21.80
2018-07-14T20:21:43.971Z,21.70
2018-07-14T20:24:13.228Z,21.70
2018-07-14T20:26:42.506Z,21.60
2018-07-14T20:29:11.865Z,21.60
2018-07-14T20:31:41.053Z,21.50
2018-07-14T20:34:10.296Z,21.40
2018-07-14T20:36:39.582Z,21.30
2018-07-14T20:39:08.841Z,21.20
2018-07-14T20:41:38.164Z,21.20
2018-07-14T20:44:07.373Z,20.90
2018-07-14T20:46:36.627Z,21.00
2018-07-14T20:49:05.939Z,20.90
2018-07-14T20:51:35.182Z,20.80
2018-07-14T20:54:04.493Z,20.80
2018-07-14T20:56:33.772Z,20.70
2018-07-14T20:59:02.996Z,20.70
2018-07-14T21:01:32.295Z,20.60
2018-07-14T21:04:01.590Z,20.60
2018-07-14T21:06:30.903Z,20.50
2018-07-14T21:09:00.220Z,20.50
2018-07-14T21:11:29.510Z,20.60
2018-07-14T21:13:58.859Z,20.50
2018-07-14T21:16:28.171Z,20.50
2018-07-14T21:21:26.671Z,20.50
2018-07-14T21:23:55.777Z,20.40
2018-07-14T21:26:25.040Z,20.30
2018-07-14T21:28:54.305Z,20.30
2018-07-14T21:31:23.621Z,20.20
2018-07-14T21:33:52.994Z,20.10
2018-07-14T21:36:22.316Z,20.10
2018-07-14T21:38:51.747Z,20.00
2018-07-14T21:41:21.266Z,19.90
2018-07-14T21:43:50.824Z,19.80
2018-07-14T21:46:20.238Z,19.80
2018-07-14T21:48:49.612Z,19.70
2018-07-14T21:51:19.012Z,19.70
2018-07-14T21:53:48.414Z,19.60
2018-07-14T21:56:17.767Z,19.50
2018-07-14T21:58:47.043Z,19.50
2018-07-14T22:01:21.527Z,19.40
2018-07-14T22:03:50.988Z,19.30
2018-07-14T22:06:20.459Z,19.30
2018-07-14T22:08:49.847Z,19.30
2018-07-14T22:11:19.220Z,19.30
2018-07-14T22:13:48.596Z,19.30
2018-07-14T22:16:18.019Z,19.20
2018-07-14T22:18:47.308Z,19.10
2018-07-14T22:21:16.569Z,19.10
2018-07-14T22:23:45.847Z,19.10
2018-07-14T22:26:15.119Z,19.10
2018-07-14T22:28:44.333Z,19.10
2018-07-14T22:31:13.535Z,19.00
2018-07-14T22:33:42.761Z,19.00
2018-07-14T22:36:11.970Z,19.00
2018-07-14T22:38:41.240Z,18.90
2018-07-14T22:41:10.469Z,18.90
2018-07-14T22:43:39.712Z,18.90
2018-07-14T22:46:08.980Z,18.80
2018-07-14T22:48:38.234Z,18.80
2018-07-14T22:51:07.507Z,18.80
2018-07-14T22:53:36.798Z,18.80
2018-07-14T22:56:06.088Z,18.70
2018-07-14T22:58:35.415Z,18.70
2018-07-14T23:01:04.668Z,18.70
2018-07-14T23:03:33.970Z,18.60
2018-07-14T23:06:03.247Z,18.60
2018-07-14T23:08:32.563Z,18.60
2018-07-14T23:11:01.790Z,18.50
2018-07-14T23:13:31.040Z,18.50
2018-07-14T23:16:00.280Z,18.50
2018-07-14T23:18:29.522Z,18.40
2018-07-14T23:20:58.821Z,18.40
2018-07-14T23:23:28.043Z,18.30
2018-07-14T23:25:57.251Z,18.30
2018-07-14T23:28:26.495Z,18.20
2018-07-14T23:30:55.800Z,18.10
2018-07-14T23:33:25.024Z,18.10
2018-07-14T23:35:54.251Z,18.10
2018-07-14T23:38:23.476Z,18.00
2018-07-14T23:40:52.723Z,18.00
2018-07-14T23:43:21.963Z,18.00
2018-07-14T23:45:51.251Z,18.00
2018-07-14T23:48:20.543Z,18.00
2018-07-14T23:50:49.812Z,17.90
2018-07-14T23:53:19.139Z,17.90
2018-07-14T23:55:48.410Z,17.90
2018-07-14T23:58:17.811Z,17.90
